Overview Statistics Trail Chart Weather Telemetry Raw packets
 

This is the latest recevied weather packets stored in our database for station/object KE5OYL. If no packets are shown the sender has not sent any weather packets the latest 10 day(s).

<< 93 94 95 96 97 98 99 >>
Time Temp. Humidity Pressure Rain* Wind** Luminosity Snow
1787926821 30.56° C 62% 1018.7 hPa 0 mm - 275 W/m² -
1787926520 30.56° C 62% 1018.6 hPa 0 mm - 257 W/m² -
1787926218 31.11° C 61% 1018.7 hPa 0 mm - 241 W/m² -
1787925919 30° C 64% 1018.5 hPa 0 mm - 225 W/m² -
1787925613 30° C 64% 1018.6 hPa 0 mm - 212 W/m² -
1787925308 29.44° C 66% 1018.5 hPa 0 mm - 197 W/m² -
1787925007 28.89° C 68% 1018.7 hPa 0 mm - 181 W/m² -
1787924702 28.89° C 66% 1018.5 hPa 0 mm - 166 W/m² -
1787924396 28.89° C 67% 1018.6 hPa 0 mm - 66 W/m² -
1787924091 28.89° C 67% 1018.6 hPa 0 mm - 139 W/m² -
1787923786 28.89° C 66% 1018.5 hPa 0 mm - 128 W/m² -
1787923481 28.89° C 66% 1018.6 hPa 0 mm - 117 W/m² -
1787923176 28.33° C 68% 1018.4 hPa 0 mm - 105 W/m² -
1787922872 28.33° C 68% 1018.5 hPa 0 mm - 95 W/m² -
1787922571 28.33° C 68% 1018.5 hPa 0 mm - 84 W/m² -
1787922270 27.78° C 68% 1018.4 hPa 0 mm - 74 W/m² -
1787921967 27.78° C 68% 1018.3 hPa 0 mm - 65 W/m² -
1787921662 27.78° C 67% 1018.4 hPa 0 mm - 55 W/m² -
1787921368 27.78° C 68% 1018.5 hPa 0 mm - 48 W/m² -
1787921058 27.78° C 68% 1017.8 hPa 0 mm - 40 W/m² -
1787920753 27.78° C 68% 1018.1 hPa 0 mm - 35 W/m² -
1787920452 27.78° C 68% 1018.2 hPa 0 mm - 29 W/m² -
1787920149 27.78° C 67% 1017.8 hPa 0 mm - 24 W/m² -
1787919849 27.22° C 68% 1017.8 hPa 0 mm - 20 W/m² -
1787919548 27.22° C 68% 1017.7 hPa 0 mm - 16 W/m² -

* Rain latest hour (hover to see other rain measurements)
** Current wind speed in m/s (hover to see current wind gust speed)